<?xml version="1.0" encoding="UTF-8" standalone="no" ?>
<gpx xmlns="http://www.topografix.com/GPX/1/1" xmlns:xsi="http://www.w3.org/2001/XMLSchema-instance" xsi:schemaLocation="http://www.topografix.com/GPX/1/1 http://www.topografix.com/GPX/1/1/gpx.xsd" version="1.1" creator="VisuGPX - https://www.visugpx.com">
  <metadata>
    <name>Château de Guédelon-Château de Ratilly</name>
    <desc><![CDATA[Château de Guédelon-Château de Ratilly : 6km-50m]]></desc>
  </metadata>
  <trk>
    <name><![CDATA[2016-04-02 16:43:17]]></name>
    <trkseg>
      <trkpt lat="47.5816" lon="3.15545">
        <ele>262.92</ele>
        <time>2016-04-02T12:48:53Z</time>
      </trkpt>
      <trkpt lat="47.58157" lon="3.15543">
        <ele>263.06</ele>
        <time>2016-04-02T12:49:13Z</time>
      </trkpt>
      <trkpt lat="47.58157" lon="3.15543">
        <ele>262.99</ele>
        <time>2016-04-02T12:49:23Z</time>
      </trkpt>
      <trkpt lat="47.5815" lon="3.15623">
        <ele>262.81</ele>
        <time>2016-04-02T12:51:55Z</time>
      </trkpt>
      <trkpt lat="47.58163" lon="3.15643">
        <ele>262.07</ele>
        <time>2016-04-02T12:52:13Z</time>
      </trkpt>
      <trkpt lat="47.58176" lon="3.15663">
        <ele>261.2</ele>
        <time>2016-04-02T12:52:34Z</time>
      </trkpt>
      <trkpt lat="47.58189" lon="3.15694">
        <ele>259.96</ele>
        <time>2016-04-02T12:52:56Z</time>
      </trkpt>
      <trkpt lat="47.58203" lon="3.15726">
        <ele>258.07</ele>
        <time>2016-04-02T12:53:19Z</time>
      </trkpt>
      <trkpt lat="47.58206" lon="3.15757">
        <ele>256.39</ele>
        <time>2016-04-02T12:53:39Z</time>
      </trkpt>
      <trkpt lat="47.58206" lon="3.15759">
        <ele>256.33</ele>
        <time>2016-04-02T12:53:40Z</time>
      </trkpt>
      <trkpt lat="47.58199" lon="3.15797">
        <ele>254.89</ele>
        <time>2016-04-02T12:54:02Z</time>
      </trkpt>
      <trkpt lat="47.58193" lon="3.15826">
        <ele>254</ele>
        <time>2016-04-02T12:54:19Z</time>
      </trkpt>
      <trkpt lat="47.58193" lon="3.15835">
        <ele>253.52</ele>
        <time>2016-04-02T12:54:25Z</time>
      </trkpt>
      <trkpt lat="47.58193" lon="3.15866">
        <ele>252.35</ele>
        <time>2016-04-02T12:54:44Z</time>
      </trkpt>
      <trkpt lat="47.58194" lon="3.15874">
        <ele>252.06</ele>
        <time>2016-04-02T12:54:49Z</time>
      </trkpt>
      <trkpt lat="47.58201" lon="3.15898">
        <ele>251.24</ele>
        <time>2016-04-02T12:55:04Z</time>
      </trkpt>
      <trkpt lat="47.58218" lon="3.15928">
        <ele>250.04</ele>
        <time>2016-04-02T12:55:26Z</time>
      </trkpt>
      <trkpt lat="47.58229" lon="3.15946">
        <ele>248.97</ele>
        <time>2016-04-02T12:55:39Z</time>
      </trkpt>
      <trkpt lat="47.58246" lon="3.15958">
        <ele>248.24</ele>
        <time>2016-04-02T12:55:54Z</time>
      </trkpt>
      <trkpt lat="47.5826" lon="3.15975">
        <ele>247.3</ele>
        <time>2016-04-02T12:56:09Z</time>
      </trkpt>
      <trkpt lat="47.58271" lon="3.15987">
        <ele>246.91</ele>
        <time>2016-04-02T12:56:24Z</time>
      </trkpt>
      <trkpt lat="47.58288" lon="3.15995">
        <ele>246.04</ele>
        <time>2016-04-02T12:56:40Z</time>
      </trkpt>
      <trkpt lat="47.58304" lon="3.1601">
        <ele>245.07</ele>
        <time>2016-04-02T12:56:55Z</time>
      </trkpt>
      <trkpt lat="47.58322" lon="3.1603">
        <ele>244.15</ele>
        <time>2016-04-02T12:57:12Z</time>
      </trkpt>
      <trkpt lat="47.58327" lon="3.16037">
        <ele>243.88</ele>
        <time>2016-04-02T12:57:18Z</time>
      </trkpt>
      <trkpt lat="47.58343" lon="3.1605">
        <ele>243.13</ele>
        <time>2016-04-02T12:57:34Z</time>
      </trkpt>
      <trkpt lat="47.58344" lon="3.16051">
        <ele>243.11</ele>
        <time>2016-04-02T12:57:35Z</time>
      </trkpt>
      <trkpt lat="47.58361" lon="3.1606">
        <ele>242.4</ele>
        <time>2016-04-02T12:57:51Z</time>
      </trkpt>
      <trkpt lat="47.58377" lon="3.16083">
        <ele>241.61</ele>
        <time>2016-04-02T12:58:07Z</time>
      </trkpt>
      <trkpt lat="47.58394" lon="3.16098">
        <ele>241.55</ele>
        <time>2016-04-02T12:58:23Z</time>
      </trkpt>
      <trkpt lat="47.58408" lon="3.16113">
        <ele>241.02</ele>
        <time>2016-04-02T12:58:38Z</time>
      </trkpt>
      <trkpt lat="47.5842" lon="3.16127">
        <ele>241.28</ele>
        <time>2016-04-02T12:58:51Z</time>
      </trkpt>
      <trkpt lat="47.58436" lon="3.16143">
        <ele>241.4</ele>
        <time>2016-04-02T12:59:09Z</time>
      </trkpt>
      <trkpt lat="47.58447" lon="3.16156">
        <ele>241.6</ele>
        <time>2016-04-02T12:59:20Z</time>
      </trkpt>
      <trkpt lat="47.58464" lon="3.16166">
        <ele>241.79</ele>
        <time>2016-04-02T12:59:34Z</time>
      </trkpt>
      <trkpt lat="47.5848" lon="3.16176">
        <ele>242.55</ele>
        <time>2016-04-02T12:59:48Z</time>
      </trkpt>
      <trkpt lat="47.58494" lon="3.1618">
        <ele>242.94</ele>
        <time>2016-04-02T13:00:01Z</time>
      </trkpt>
      <trkpt lat="47.58503" lon="3.16182">
        <ele>242.82</ele>
        <time>2016-04-02T13:00:07Z</time>
      </trkpt>
      <trkpt lat="47.5852" lon="3.16188">
        <ele>243.12</ele>
        <time>2016-04-02T13:00:21Z</time>
      </trkpt>
      <trkpt lat="47.58534" lon="3.16191">
        <ele>243.16</ele>
        <time>2016-04-02T13:00:33Z</time>
      </trkpt>
      <trkpt lat="47.58548" lon="3.16194">
        <ele>243.4</ele>
        <time>2016-04-02T13:00:47Z</time>
      </trkpt>
      <trkpt lat="47.58579" lon="3.16198">
        <ele>243.76</ele>
        <time>2016-04-02T13:01:13Z</time>
      </trkpt>
      <trkpt lat="47.58614" lon="3.16207">
        <ele>244.29</ele>
        <time>2016-04-02T13:01:39Z</time>
      </trkpt>
      <trkpt lat="47.58633" lon="3.16209">
        <ele>244.52</ele>
        <time>2016-04-02T13:01:54Z</time>
      </trkpt>
      <trkpt lat="47.58646" lon="3.16213">
        <ele>244.95</ele>
        <time>2016-04-02T13:02:07Z</time>
      </trkpt>
      <trkpt lat="47.58649" lon="3.16212">
        <ele>245.02</ele>
        <time>2016-04-02T13:02:10Z</time>
      </trkpt>
      <trkpt lat="47.58663" lon="3.16216">
        <ele>245.43</ele>
        <time>2016-04-02T13:02:24Z</time>
      </trkpt>
      <trkpt lat="47.58684" lon="3.16223">
        <ele>245.63</ele>
        <time>2016-04-02T13:02:41Z</time>
      </trkpt>
      <trkpt lat="47.58691" lon="3.16228">
        <ele>245.63</ele>
        <time>2016-04-02T13:02:48Z</time>
      </trkpt>
      <trkpt lat="47.58703" lon="3.16239">
        <ele>245.88</ele>
        <time>2016-04-02T13:03:01Z</time>
      </trkpt>
      <trkpt lat="47.58714" lon="3.16254">
        <ele>246.05</ele>
        <time>2016-04-02T13:03:15Z</time>
      </trkpt>
      <trkpt lat="47.58715" lon="3.16255">
        <ele>246.33</ele>
        <time>2016-04-02T13:03:30Z</time>
      </trkpt>
      <trkpt lat="47.58717" lon="3.16255">
        <ele>246.4</ele>
        <time>2016-04-02T13:03:48Z</time>
      </trkpt>
      <trkpt lat="47.58274" lon="3.16799">
        <ele>276.79</ele>
        <time>2016-04-02T13:20:13Z</time>
      </trkpt>
      <trkpt lat="47.5826" lon="3.16807">
        <ele>277.37</ele>
        <time>2016-04-02T13:20:30Z</time>
      </trkpt>
      <trkpt lat="47.58245" lon="3.16814">
        <ele>277.79</ele>
        <time>2016-04-02T13:20:48Z</time>
      </trkpt>
      <trkpt lat="47.58226" lon="3.16821">
        <ele>277.74</ele>
        <time>2016-04-02T13:21:08Z</time>
      </trkpt>
      <trkpt lat="47.5821" lon="3.16831">
        <ele>278.34</ele>
        <time>2016-04-02T13:21:23Z</time>
      </trkpt>
      <trkpt lat="47.58194" lon="3.16839">
        <ele>278.88</ele>
        <time>2016-04-02T13:21:42Z</time>
      </trkpt>
      <trkpt lat="47.58181" lon="3.16845">
        <ele>279.3</ele>
        <time>2016-04-02T13:22:03Z</time>
      </trkpt>
      <trkpt lat="47.58161" lon="3.16854">
        <ele>279.22</ele>
        <time>2016-04-02T13:22:23Z</time>
      </trkpt>
      <trkpt lat="47.58138" lon="3.16864">
        <ele>279.06</ele>
        <time>2016-04-02T13:22:45Z</time>
      </trkpt>
      <trkpt lat="47.58121" lon="3.16872">
        <ele>278.53</ele>
        <time>2016-04-02T13:23:07Z</time>
      </trkpt>
      <trkpt lat="47.58103" lon="3.16878">
        <ele>277.81</ele>
        <time>2016-04-02T13:23:28Z</time>
      </trkpt>
      <trkpt lat="47.58085" lon="3.16887">
        <ele>278.08</ele>
        <time>2016-04-02T13:23:48Z</time>
      </trkpt>
      <trkpt lat="47.58068" lon="3.16894">
        <ele>278.69</ele>
        <time>2016-04-02T13:24:10Z</time>
      </trkpt>
      <trkpt lat="47.58043" lon="3.16901">
        <ele>279.85</ele>
        <time>2016-04-02T13:24:33Z</time>
      </trkpt>
      <trkpt lat="47.58019" lon="3.16906">
        <ele>280.46</ele>
        <time>2016-04-02T13:24:53Z</time>
      </trkpt>
      <trkpt lat="47.57998" lon="3.16912">
        <ele>281.32</ele>
        <time>2016-04-02T13:25:14Z</time>
      </trkpt>
      <trkpt lat="47.57978" lon="3.16918">
        <ele>281.83</ele>
        <time>2016-04-02T13:25:34Z</time>
      </trkpt>
      <trkpt lat="47.57964" lon="3.16927">
        <ele>282.32</ele>
        <time>2016-04-02T13:25:49Z</time>
      </trkpt>
      <trkpt lat="47.57948" lon="3.16939">
        <ele>283.02</ele>
        <time>2016-04-02T13:26:06Z</time>
      </trkpt>
      <trkpt lat="47.57936" lon="3.16953">
        <ele>283.51</ele>
        <time>2016-04-02T13:26:26Z</time>
      </trkpt>
      <trkpt lat="47.57936" lon="3.16958">
        <ele>283.81</ele>
        <time>2016-04-02T13:26:52Z</time>
      </trkpt>
      <trkpt lat="47.57935" lon="3.1696">
        <ele>283.23</ele>
        <time>2016-04-02T13:27:16Z</time>
      </trkpt>
      <trkpt lat="47.57934" lon="3.16961">
        <ele>283.37</ele>
        <time>2016-04-02T13:27:25Z</time>
      </trkpt>
      <trkpt lat="47.5768" lon="3.16922">
        <ele>273.79</ele>
        <time>2016-04-02T13:32:43Z</time>
      </trkpt>
      <trkpt lat="47.57679" lon="3.16922">
        <ele>273.77</ele>
        <time>2016-04-02T13:32:44Z</time>
      </trkpt>
      <trkpt lat="47.57666" lon="3.16924">
        <ele>273.48</ele>
        <time>2016-04-02T13:32:58Z</time>
      </trkpt>
      <trkpt lat="47.57653" lon="3.16924">
        <ele>272.89</ele>
        <time>2016-04-02T13:33:14Z</time>
      </trkpt>
      <trkpt lat="47.57638" lon="3.1691">
        <ele>272.51</ele>
        <time>2016-04-02T13:33:34Z</time>
      </trkpt>
      <trkpt lat="47.57627" lon="3.16893">
        <ele>273.05</ele>
        <time>2016-04-02T13:33:53Z</time>
      </trkpt>
      <trkpt lat="47.57626" lon="3.16892">
        <ele>273.03</ele>
        <time>2016-04-02T13:33:54Z</time>
      </trkpt>
      <trkpt lat="47.57618" lon="3.16881">
        <ele>273.03</ele>
        <time>2016-04-02T13:34:05Z</time>
      </trkpt>
      <trkpt lat="47.57616" lon="3.16878">
        <ele>273.2</ele>
        <time>2016-04-02T13:34:08Z</time>
      </trkpt>
      <trkpt lat="47.57611" lon="3.16871">
        <ele>273.37</ele>
        <time>2016-04-02T13:34:15Z</time>
      </trkpt>
      <trkpt lat="47.57605" lon="3.16865">
        <ele>273.29</ele>
        <time>2016-04-02T13:34:22Z</time>
      </trkpt>
      <trkpt lat="47.57601" lon="3.16857">
        <ele>273.29</ele>
        <time>2016-04-02T13:34:28Z</time>
      </trkpt>
      <trkpt lat="47.57587" lon="3.16841">
        <ele>273.01</ele>
        <time>2016-04-02T13:34:43Z</time>
      </trkpt>
      <trkpt lat="47.57582" lon="3.16832">
        <ele>272.69</ele>
        <time>2016-04-02T13:34:57Z</time>
      </trkpt>
      <trkpt lat="47.57572" lon="3.16823">
        <ele>272.91</ele>
        <time>2016-04-02T13:35:18Z</time>
      </trkpt>
      <trkpt lat="47.57559" lon="3.16811">
        <ele>272.44</ele>
        <time>2016-04-02T13:35:37Z</time>
      </trkpt>
      <trkpt lat="47.57545" lon="3.16788">
        <ele>271.26</ele>
        <time>2016-04-02T13:35:57Z</time>
      </trkpt>
      <trkpt lat="47.57532" lon="3.16772">
        <ele>269.97</ele>
        <time>2016-04-02T13:36:16Z</time>
      </trkpt>
      <trkpt lat="47.57525" lon="3.16759">
        <ele>269.3</ele>
        <time>2016-04-02T13:36:36Z</time>
      </trkpt>
      <trkpt lat="47.57519" lon="3.16751">
        <ele>268.91</ele>
        <time>2016-04-02T13:37:04Z</time>
      </trkpt>
      <trkpt lat="47.57517" lon="3.16751">
        <ele>268.96</ele>
        <time>2016-04-02T13:37:32Z</time>
      </trkpt>
      <trkpt lat="47.57511" lon="3.16748">
        <ele>268.8</ele>
        <time>2016-04-02T13:37:55Z</time>
      </trkpt>
      <trkpt lat="47.57145" lon="3.16441">
        <ele>260.53</ele>
        <time>2016-04-02T13:45:52Z</time>
      </trkpt>
      <trkpt lat="47.5713" lon="3.16433">
        <ele>261.07</ele>
        <time>2016-04-02T13:46:07Z</time>
      </trkpt>
      <trkpt lat="47.57112" lon="3.16419">
        <ele>261.59</ele>
        <time>2016-04-02T13:46:25Z</time>
      </trkpt>
      <trkpt lat="47.57099" lon="3.16411">
        <ele>260.85</ele>
        <time>2016-04-02T13:46:43Z</time>
      </trkpt>
      <trkpt lat="47.57096" lon="3.16409">
        <ele>260.78</ele>
        <time>2016-04-02T13:46:47Z</time>
      </trkpt>
      <trkpt lat="47.57093" lon="3.16406">
        <ele>260.83</ele>
        <time>2016-04-02T13:46:49Z</time>
      </trkpt>
      <trkpt lat="47.57084" lon="3.16404">
        <ele>260.88</ele>
        <time>2016-04-02T13:46:55Z</time>
      </trkpt>
      <trkpt lat="47.57066" lon="3.16401">
        <ele>261.1</ele>
        <time>2016-04-02T13:47:11Z</time>
      </trkpt>
      <trkpt lat="47.57047" lon="3.16391">
        <ele>261.11</ele>
        <time>2016-04-02T13:47:28Z</time>
      </trkpt>
      <trkpt lat="47.57034" lon="3.16379">
        <ele>261.34</ele>
        <time>2016-04-02T13:47:48Z</time>
      </trkpt>
      <trkpt lat="47.5702" lon="3.16362">
        <ele>261.25</ele>
        <time>2016-04-02T13:48:07Z</time>
      </trkpt>
      <trkpt lat="47.57007" lon="3.16343">
        <ele>261.72</ele>
        <time>2016-04-02T13:48:26Z</time>
      </trkpt>
      <trkpt lat="47.56999" lon="3.16325">
        <ele>262.46</ele>
        <time>2016-04-02T13:48:42Z</time>
      </trkpt>
      <trkpt lat="47.56986" lon="3.16302">
        <ele>263.51</ele>
        <time>2016-04-02T13:49:02Z</time>
      </trkpt>
      <trkpt lat="47.56981" lon="3.16297">
        <ele>263.65</ele>
        <time>2016-04-02T13:49:08Z</time>
      </trkpt>
      <trkpt lat="47.56973" lon="3.16287">
        <ele>264.21</ele>
        <time>2016-04-02T13:49:18Z</time>
      </trkpt>
      <trkpt lat="47.56958" lon="3.16276">
        <ele>265.3</ele>
        <time>2016-04-02T13:49:32Z</time>
      </trkpt>
      <trkpt lat="47.56945" lon="3.16266">
        <ele>265.46</ele>
        <time>2016-04-02T13:49:45Z</time>
      </trkpt>
      <trkpt lat="47.56932" lon="3.16257">
        <ele>264.95</ele>
        <time>2016-04-02T13:49:58Z</time>
      </trkpt>
      <trkpt lat="47.56916" lon="3.16246">
        <ele>263.98</ele>
        <time>2016-04-02T13:50:14Z</time>
      </trkpt>
      <trkpt lat="47.56902" lon="3.16234">
        <ele>263.3</ele>
        <time>2016-04-02T13:50:28Z</time>
      </trkpt>
      <trkpt lat="47.5689" lon="3.16224">
        <ele>262.37</ele>
        <time>2016-04-02T13:50:41Z</time>
      </trkpt>
      <trkpt lat="47.56889" lon="3.16224">
        <ele>262.28</ele>
        <time>2016-04-02T13:50:42Z</time>
      </trkpt>
      <trkpt lat="47.56885" lon="3.1622">
        <ele>261.93</ele>
        <time>2016-04-02T13:50:48Z</time>
      </trkpt>
      <trkpt lat="47.56878" lon="3.16212">
        <ele>261.77</ele>
        <time>2016-04-02T13:50:56Z</time>
      </trkpt>
      <trkpt lat="47.56875" lon="3.16206">
        <ele>261.72</ele>
        <time>2016-04-02T13:51:00Z</time>
      </trkpt>
      <trkpt lat="47.56865" lon="3.1619">
        <ele>261.7</ele>
        <time>2016-04-02T13:51:14Z</time>
      </trkpt>
      <trkpt lat="47.56861" lon="3.16178">
        <ele>262.02</ele>
        <time>2016-04-02T13:51:22Z</time>
      </trkpt>
      <trkpt lat="47.5685" lon="3.16167">
        <ele>261.94</ele>
        <time>2016-04-02T13:51:35Z</time>
      </trkpt>
      <trkpt lat="47.56851" lon="3.16163">
        <ele>262.26</ele>
        <time>2016-04-02T13:51:57Z</time>
      </trkpt>
      <trkpt lat="47.56852" lon="3.16164">
        <ele>262.36</ele>
        <time>2016-04-02T13:52:03Z</time>
      </trkpt>
      <trkpt lat="47.56828" lon="3.16113">
        <ele>266.3</ele>
        <time>2016-04-02T13:58:14Z</time>
      </trkpt>
      <trkpt lat="47.56816" lon="3.16101">
        <ele>266.51</ele>
        <time>2016-04-02T13:58:29Z</time>
      </trkpt>
      <trkpt lat="47.56798" lon="3.16088">
        <ele>266.94</ele>
        <time>2016-04-02T13:58:48Z</time>
      </trkpt>
      <trkpt lat="47.56785" lon="3.16077">
        <ele>267.43</ele>
        <time>2016-04-02T13:59:03Z</time>
      </trkpt>
      <trkpt lat="47.5677" lon="3.16067">
        <ele>267.97</ele>
        <time>2016-04-02T13:59:18Z</time>
      </trkpt>
      <trkpt lat="47.56756" lon="3.16054">
        <ele>268.66</ele>
        <time>2016-04-02T13:59:33Z</time>
      </trkpt>
      <trkpt lat="47.56746" lon="3.16045">
        <ele>269.41</ele>
        <time>2016-04-02T13:59:46Z</time>
      </trkpt>
      <trkpt lat="47.56735" lon="3.16037">
        <ele>270.53</ele>
        <time>2016-04-02T13:59:59Z</time>
      </trkpt>
      <trkpt lat="47.56724" lon="3.16029">
        <ele>271.7</ele>
        <time>2016-04-02T14:00:16Z</time>
      </trkpt>
      <trkpt lat="47.56719" lon="3.16025">
        <ele>272.36</ele>
        <time>2016-04-02T14:00:23Z</time>
      </trkpt>
      <trkpt lat="47.56708" lon="3.16015">
        <ele>274.19</ele>
        <time>2016-04-02T14:00:38Z</time>
      </trkpt>
      <trkpt lat="47.56697" lon="3.16008">
        <ele>275.6</ele>
        <time>2016-04-02T14:00:53Z</time>
      </trkpt>
      <trkpt lat="47.56687" lon="3.15999">
        <ele>276.97</ele>
        <time>2016-04-02T14:01:05Z</time>
      </trkpt>
      <trkpt lat="47.56676" lon="3.15988">
        <ele>278.15</ele>
        <time>2016-04-02T14:01:20Z</time>
      </trkpt>
      <trkpt lat="47.56666" lon="3.15979">
        <ele>279.22</ele>
        <time>2016-04-02T14:01:34Z</time>
      </trkpt>
      <trkpt lat="47.56654" lon="3.15969">
        <ele>280.49</ele>
        <time>2016-04-02T14:01:50Z</time>
      </trkpt>
      <trkpt lat="47.56643" lon="3.15958">
        <ele>281.28</ele>
        <time>2016-04-02T14:02:04Z</time>
      </trkpt>
      <trkpt lat="47.56633" lon="3.1595">
        <ele>282.22</ele>
        <time>2016-04-02T14:02:18Z</time>
      </trkpt>
      <trkpt lat="47.56621" lon="3.15941">
        <ele>283.03</ele>
        <time>2016-04-02T14:02:32Z</time>
      </trkpt>
      <trkpt lat="47.5662" lon="3.1594">
        <ele>283.18</ele>
        <time>2016-04-02T14:02:34Z</time>
      </trkpt>
      <trkpt lat="47.56605" lon="3.15927">
        <ele>284.07</ele>
        <time>2016-04-02T14:02:50Z</time>
      </trkpt>
      <trkpt lat="47.56592" lon="3.15911">
        <ele>285.03</ele>
        <time>2016-04-02T14:03:05Z</time>
      </trkpt>
      <trkpt lat="47.56583" lon="3.15904">
        <ele>285.5</ele>
        <time>2016-04-02T14:03:15Z</time>
      </trkpt>
      <trkpt lat="47.5658" lon="3.15904">
        <ele>285.67</ele>
        <time>2016-04-02T14:03:18Z</time>
      </trkpt>
      <trkpt lat="47.5657" lon="3.15898">
        <ele>286.06</ele>
        <time>2016-04-02T14:03:28Z</time>
      </trkpt>
      <trkpt lat="47.56553" lon="3.15899">
        <ele>286.48</ele>
        <time>2016-04-02T14:03:44Z</time>
      </trkpt>
      <trkpt lat="47.56536" lon="3.15904">
        <ele>287.56</ele>
        <time>2016-04-02T14:04:00Z</time>
      </trkpt>
      <trkpt lat="47.56521" lon="3.15911">
        <ele>288.53</ele>
        <time>2016-04-02T14:04:16Z</time>
      </trkpt>
      <trkpt lat="47.56516" lon="3.15912">
        <ele>288.73</ele>
        <time>2016-04-02T14:04:21Z</time>
      </trkpt>
      <trkpt lat="47.565" lon="3.15918">
        <ele>289.61</ele>
        <time>2016-04-02T14:04:37Z</time>
      </trkpt>
      <trkpt lat="47.56485" lon="3.15925">
        <ele>290.34</ele>
        <time>2016-04-02T14:04:53Z</time>
      </trkpt>
      <trkpt lat="47.56484" lon="3.15925">
        <ele>290.38</ele>
        <time>2016-04-02T14:04:54Z</time>
      </trkpt>
      <trkpt lat="47.5648" lon="3.15929">
        <ele>290.51</ele>
        <time>2016-04-02T14:04:58Z</time>
      </trkpt>
      <trkpt lat="47.56466" lon="3.15946">
        <ele>291.03</ele>
        <time>2016-04-02T14:05:13Z</time>
      </trkpt>
      <trkpt lat="47.56454" lon="3.15961">
        <ele>290.46</ele>
        <time>2016-04-02T14:05:28Z</time>
      </trkpt>
      <trkpt lat="47.56441" lon="3.15976">
        <ele>289.65</ele>
        <time>2016-04-02T14:05:41Z</time>
      </trkpt>
      <trkpt lat="47.56428" lon="3.15989">
        <ele>289.04</ele>
        <time>2016-04-02T14:05:56Z</time>
      </trkpt>
      <trkpt lat="47.56413" lon="3.16003">
        <ele>288.38</ele>
        <time>2016-04-02T14:06:11Z</time>
      </trkpt>
      <trkpt lat="47.564" lon="3.16015">
        <ele>288.32</ele>
        <time>2016-04-02T14:06:24Z</time>
      </trkpt>
      <trkpt lat="47.56385" lon="3.16026">
        <ele>287.94</ele>
        <time>2016-04-02T14:06:39Z</time>
      </trkpt>
      <trkpt lat="47.56367" lon="3.16039">
        <ele>287.06</ele>
        <time>2016-04-02T14:06:56Z</time>
      </trkpt>
      <trkpt lat="47.56353" lon="3.16047">
        <ele>287.04</ele>
        <time>2016-04-02T14:07:10Z</time>
      </trkpt>
      <trkpt lat="47.5634" lon="3.16054">
        <ele>286.72</ele>
        <time>2016-04-02T14:07:23Z</time>
      </trkpt>
      <trkpt lat="47.56328" lon="3.16057">
        <ele>286.52</ele>
        <time>2016-04-02T14:07:34Z</time>
      </trkpt>
      <trkpt lat="47.56314" lon="3.16065">
        <ele>286.16</ele>
        <time>2016-04-02T14:07:48Z</time>
      </trkpt>
      <trkpt lat="47.56303" lon="3.16072">
        <ele>286.19</ele>
        <time>2016-04-02T14:08:00Z</time>
      </trkpt>
      <trkpt lat="47.56283" lon="3.16084">
        <ele>286.13</ele>
        <time>2016-04-02T14:08:22Z</time>
      </trkpt>
      <trkpt lat="47.56268" lon="3.16091">
        <ele>285.78</ele>
        <time>2016-04-02T14:08:38Z</time>
      </trkpt>
      <trkpt lat="47.56265" lon="3.16092">
        <ele>285.78</ele>
        <time>2016-04-02T14:08:40Z</time>
      </trkpt>
      <trkpt lat="47.56259" lon="3.16097">
        <ele>285.83</ele>
        <time>2016-04-02T14:08:45Z</time>
      </trkpt>
      <trkpt lat="47.56241" lon="3.16109">
        <ele>285.77</ele>
        <time>2016-04-02T14:08:59Z</time>
      </trkpt>
      <trkpt lat="47.56225" lon="3.16118">
        <ele>286.08</ele>
        <time>2016-04-02T14:09:14Z</time>
      </trkpt>
      <trkpt lat="47.56223" lon="3.16119">
        <ele>286.16</ele>
        <time>2016-04-02T14:09:16Z</time>
      </trkpt>
      <trkpt lat="47.56209" lon="3.1613">
        <ele>286.21</ele>
        <time>2016-04-02T14:09:30Z</time>
      </trkpt>
      <trkpt lat="47.56195" lon="3.16138">
        <ele>285.9</ele>
        <time>2016-04-02T14:09:48Z</time>
      </trkpt>
      <trkpt lat="47.56181" lon="3.16145">
        <ele>285.7</ele>
        <time>2016-04-02T14:10:07Z</time>
      </trkpt>
      <trkpt lat="47.56156" lon="3.16154">
        <ele>285.16</ele>
        <time>2016-04-02T14:10:30Z</time>
      </trkpt>
      <trkpt lat="47.5613" lon="3.16166">
        <ele>284.82</ele>
        <time>2016-04-02T14:10:50Z</time>
      </trkpt>
      <trkpt lat="47.56108" lon="3.16178">
        <ele>284.04</ele>
        <time>2016-04-02T14:11:06Z</time>
      </trkpt>
      <trkpt lat="47.56089" lon="3.1619">
        <ele>282.72</ele>
        <time>2016-04-02T14:11:22Z</time>
      </trkpt>
      <trkpt lat="47.56081" lon="3.16196">
        <ele>282.26</ele>
        <time>2016-04-02T14:11:31Z</time>
      </trkpt>
      <trkpt lat="47.56059" lon="3.16201">
        <ele>280.97</ele>
        <time>2016-04-02T14:11:53Z</time>
      </trkpt>
      <trkpt lat="47.56039" lon="3.16209">
        <ele>279.47</ele>
        <time>2016-04-02T14:12:13Z</time>
      </trkpt>
      <trkpt lat="47.5603" lon="3.16216">
        <ele>279.12</ele>
        <time>2016-04-02T14:12:23Z</time>
      </trkpt>
      <trkpt lat="47.5601" lon="3.16242">
        <ele>277.66</ele>
        <time>2016-04-02T14:12:45Z</time>
      </trkpt>
      <trkpt lat="47.55999" lon="3.16257">
        <ele>276.63</ele>
        <time>2016-04-02T14:12:58Z</time>
      </trkpt>
      <trkpt lat="47.55982" lon="3.16278">
        <ele>275.43</ele>
        <time>2016-04-02T14:13:16Z</time>
      </trkpt>
      <trkpt lat="47.55973" lon="3.163">
        <ele>274.09</ele>
        <time>2016-04-02T14:13:31Z</time>
      </trkpt>
      <trkpt lat="47.55969" lon="3.16306">
        <ele>273.77</ele>
        <time>2016-04-02T14:13:36Z</time>
      </trkpt>
      <trkpt lat="47.55959" lon="3.16322">
        <ele>272.58</ele>
        <time>2016-04-02T14:13:50Z</time>
      </trkpt>
      <trkpt lat="47.55946" lon="3.16346">
        <ele>271.39</ele>
        <time>2016-04-02T14:14:05Z</time>
      </trkpt>
      <trkpt lat="47.55935" lon="3.16371">
        <ele>270.56</ele>
        <time>2016-04-02T14:14:20Z</time>
      </trkpt>
      <trkpt lat="47.55927" lon="3.1639">
        <ele>269.7</ele>
        <time>2016-04-02T14:14:34Z</time>
      </trkpt>
      <trkpt lat="47.55923" lon="3.164">
        <ele>269.36</ele>
        <time>2016-04-02T14:14:41Z</time>
      </trkpt>
      <trkpt lat="47.55912" lon="3.16425">
        <ele>268.35</ele>
        <time>2016-04-02T14:14:59Z</time>
      </trkpt>
      <trkpt lat="47.55909" lon="3.16434">
        <ele>268.1</ele>
        <time>2016-04-02T14:15:05Z</time>
      </trkpt>
      <trkpt lat="47.55902" lon="3.16457">
        <ele>267.41</ele>
        <time>2016-04-02T14:15:22Z</time>
      </trkpt>
      <trkpt lat="47.55892" lon="3.16484">
        <ele>266.9</ele>
        <time>2016-04-02T14:15:39Z</time>
      </trkpt>
      <trkpt lat="47.55885" lon="3.16507">
        <ele>266.47</ele>
        <time>2016-04-02T14:15:54Z</time>
      </trkpt>
      <trkpt lat="47.55875" lon="3.16529">
        <ele>266.54</ele>
        <time>2016-04-02T14:16:09Z</time>
      </trkpt>
      <trkpt lat="47.55866" lon="3.16553">
        <ele>265.86</ele>
        <time>2016-04-02T14:16:25Z</time>
      </trkpt>
      <trkpt lat="47.55855" lon="3.16573">
        <ele>265.39</ele>
        <time>2016-04-02T14:16:40Z</time>
      </trkpt>
      <trkpt lat="47.55847" lon="3.16586">
        <ele>265.25</ele>
        <time>2016-04-02T14:16:51Z</time>
      </trkpt>
      <trkpt lat="47.55829" lon="3.16606">
        <ele>265.4</ele>
        <time>2016-04-02T14:17:10Z</time>
      </trkpt>
      <trkpt lat="47.55815" lon="3.1662">
        <ele>265.15</ele>
        <time>2016-04-02T14:17:23Z</time>
      </trkpt>
      <trkpt lat="47.55804" lon="3.16634">
        <ele>264.79</ele>
        <time>2016-04-02T14:17:37Z</time>
      </trkpt>
      <trkpt lat="47.55787" lon="3.16652">
        <ele>264.69</ele>
        <time>2016-04-02T14:17:53Z</time>
      </trkpt>
      <trkpt lat="47.55773" lon="3.16669">
        <ele>264.65</ele>
        <time>2016-04-02T14:18:08Z</time>
      </trkpt>
      <trkpt lat="47.55759" lon="3.16686">
        <ele>264.76</ele>
        <time>2016-04-02T14:18:24Z</time>
      </trkpt>
      <trkpt lat="47.55742" lon="3.16704">
        <ele>264.77</ele>
        <time>2016-04-02T14:18:42Z</time>
      </trkpt>
      <trkpt lat="47.5574" lon="3.16708">
        <ele>264.77</ele>
        <time>2016-04-02T14:18:46Z</time>
      </trkpt>
      <trkpt lat="47.55737" lon="3.1671">
        <ele>264.75</ele>
        <time>2016-04-02T14:18:49Z</time>
      </trkpt>
      <trkpt lat="47.55724" lon="3.16722">
        <ele>264.62</ele>
        <time>2016-04-02T14:19:03Z</time>
      </trkpt>
      <trkpt lat="47.55711" lon="3.16734">
        <ele>264.35</ele>
        <time>2016-04-02T14:19:17Z</time>
      </trkpt>
      <trkpt lat="47.55691" lon="3.16745">
        <ele>264.73</ele>
        <time>2016-04-02T14:19:36Z</time>
      </trkpt>
      <trkpt lat="47.55687" lon="3.16745">
        <ele>264.71</ele>
        <time>2016-04-02T14:19:40Z</time>
      </trkpt>
      <trkpt lat="47.55671" lon="3.16749">
        <ele>264.77</ele>
        <time>2016-04-02T14:19:55Z</time>
      </trkpt>
      <trkpt lat="47.55664" lon="3.1675">
        <ele>264.78</ele>
        <time>2016-04-02T14:20:01Z</time>
      </trkpt>
      <trkpt lat="47.55648" lon="3.16754">
        <ele>265.08</ele>
        <time>2016-04-02T14:20:16Z</time>
      </trkpt>
      <trkpt lat="47.5563" lon="3.16759">
        <ele>265.41</ele>
        <time>2016-04-02T14:20:31Z</time>
      </trkpt>
      <trkpt lat="47.55628" lon="3.16759">
        <ele>265.4</ele>
        <time>2016-04-02T14:20:33Z</time>
      </trkpt>
      <trkpt lat="47.55624" lon="3.1676">
        <ele>265.5</ele>
        <time>2016-04-02T14:20:37Z</time>
      </trkpt>
      <trkpt lat="47.55609" lon="3.16763">
        <ele>265.8</ele>
        <time>2016-04-02T14:20:50Z</time>
      </trkpt>
      <trkpt lat="47.55594" lon="3.16766">
        <ele>266.22</ele>
        <time>2016-04-02T14:21:04Z</time>
      </trkpt>
      <trkpt lat="47.55585" lon="3.16768">
        <ele>266.3</ele>
        <time>2016-04-02T14:21:13Z</time>
      </trkpt>
      <trkpt lat="47.55579" lon="3.1677">
        <ele>266.4</ele>
        <time>2016-04-02T14:21:19Z</time>
      </trkpt>
      <trkpt lat="47.55562" lon="3.16776">
        <ele>266.67</ele>
        <time>2016-04-02T14:21:34Z</time>
      </trkpt>
      <trkpt lat="47.55546" lon="3.16781">
        <ele>266.61</ele>
        <time>2016-04-02T14:21:48Z</time>
      </trkpt>
      <trkpt lat="47.55529" lon="3.16785">
        <ele>266.47</ele>
        <time>2016-04-02T14:22:04Z</time>
      </trkpt>
      <trkpt lat="47.55521" lon="3.16783">
        <ele>266.27</ele>
        <time>2016-04-02T14:22:17Z</time>
      </trkpt>
      <trkpt lat="47.55507" lon="3.16783">
        <ele>266.73</ele>
        <time>2016-04-02T14:22:36Z</time>
      </trkpt>
      <trkpt lat="47.55494" lon="3.16774">
        <ele>267.1</ele>
        <time>2016-04-02T14:22:59Z</time>
      </trkpt>
      <trkpt lat="47.55493" lon="3.16763">
        <ele>268.06</ele>
        <time>2016-04-02T14:23:19Z</time>
      </trkpt>
      <trkpt lat="47.55494" lon="3.16736">
        <ele>268.54</ele>
        <time>2016-04-02T14:23:39Z</time>
      </trkpt>
      <trkpt lat="47.55493" lon="3.16717">
        <ele>268.69</ele>
        <time>2016-04-02T14:23:51Z</time>
      </trkpt>
      <trkpt lat="47.55488" lon="3.16696">
        <ele>268.62</ele>
        <time>2016-04-02T14:24:08Z</time>
      </trkpt>
      <trkpt lat="47.55484" lon="3.1669">
        <ele>268.56</ele>
        <time>2016-04-02T14:24:15Z</time>
      </trkpt>
      <trkpt lat="47.55482" lon="3.16688">
        <ele>268.59</ele>
        <time>2016-04-02T14:24:17Z</time>
      </trkpt>
      <trkpt lat="47.55462" lon="3.16682">
        <ele>269.08</ele>
        <time>2016-04-02T14:24:36Z</time>
      </trkpt>
      <trkpt lat="47.55447" lon="3.16684">
        <ele>269.03</ele>
        <time>2016-04-02T14:24:52Z</time>
      </trkpt>
      <trkpt lat="47.55432" lon="3.16688">
        <ele>268.79</ele>
        <time>2016-04-02T14:25:08Z</time>
      </trkpt>
      <trkpt lat="47.55425" lon="3.16694">
        <ele>268.93</ele>
        <time>2016-04-02T14:25:25Z</time>
      </trkpt>
      <trkpt lat="47.5542" lon="3.16721">
        <ele>269.59</ele>
        <time>2016-04-02T14:25:48Z</time>
      </trkpt>
      <trkpt lat="47.55427" lon="3.16737">
        <ele>270.38</ele>
        <time>2016-04-02T14:26:08Z</time>
      </trkpt>
      <trkpt lat="47.55434" lon="3.16738">
        <ele>271.16</ele>
        <time>2016-04-02T14:26:29Z</time>
      </trkpt>
      <trkpt lat="47.55437" lon="3.16738">
        <ele>271.22</ele>
        <time>2016-04-02T14:26:42Z</time>
      </trkpt>
      <trkpt lat="47.55434" lon="3.16737">
        <ele>271.26</ele>
        <time>2016-04-02T14:27:10Z</time>
      </trkpt>
      <trkpt lat="47.55435" lon="3.16739">
        <ele>271.17</ele>
        <time>2016-04-02T14:27:35Z</time>
      </trkpt>
    </trkseg>
  </trk>
</gpx>